createdAt,value
2022-11-27T00:01:34.448Z,74.56
2022-11-27T00:04:01.422Z,74.64
2022-11-27T00:06:30.029Z,74.49
2022-11-27T00:08:58.789Z,74.63
2022-11-27T00:11:28.816Z,74.77
2022-11-27T00:13:55.831Z,74.32
2022-11-27T00:16:23.951Z,74.44
2022-11-27T00:18:50.852Z,74.72
2022-11-27T00:21:24.264Z,74.70
2022-11-27T00:23:53.412Z,74.50
2022-11-27T00:26:21.429Z,74.90
2022-11-27T00:28:48.829Z,74.77
2022-11-27T00:31:19.868Z,74.30
2022-11-27T00:33:47.148Z,74.27
2022-11-27T00:36:15.488Z,74.38
2022-11-27T00:38:42.347Z,74.79
2022-11-27T00:41:12.476Z,74.60
2022-11-27T00:43:44.375Z,74.64
2022-11-27T00:46:17.506Z,74.72
2022-11-27T00:48:45.624Z,74.38
2022-11-27T00:51:19.104Z,74.02
2022-11-27T00:53:47.031Z,74.32
2022-11-27T00:56:19.627Z,73.98
2022-11-27T00:58:46.900Z,74.14
2022-11-27T01:01:24.087Z,74.04
2022-11-27T01:03:51.513Z,74.06
2022-11-27T01:06:20.320Z,74.37
2022-11-27T01:08:48.033Z,74.34
2022-11-27T01:11:23.005Z,74.73
2022-11-27T01:13:49.851Z,74.84
2022-11-27T01:16:20.989Z,74.90
2022-11-27T01:18:49.671Z,75.23
2022-11-27T01:21:20.338Z,75.43
2022-11-27T01:23:48.683Z,74.87
2022-11-27T01:26:18.444Z,74.61
2022-11-27T01:28:46.516Z,74.01
2022-11-27T01:31:20.703Z,74.45
2022-11-27T01:33:48.196Z,74.58
2022-11-27T01:36:16.296Z,73.88
2022-11-27T01:38:43.549Z,73.42
2022-11-27T01:41:20.827Z,73.81
2022-11-27T01:43:56.360Z,74.28
2022-11-27T01:46:33.308Z,74.39
2022-11-27T01:49:08.752Z,74.19
2022-11-27T01:51:44.631Z,74.45
2022-11-27T01:54:12.711Z,74.20
2022-11-27T01:56:41.862Z,74.35
2022-11-27T01:59:08.711Z,74.48
2022-11-27T02:01:35.668Z,74.21
2022-11-27T02:04:03.315Z,73.88
2022-11-27T02:06:30.266Z,73.72
2022-11-27T02:08:57.236Z,74.04
2022-11-27T02:11:49.020Z,74.31
2022-11-27T02:14:15.753Z,73.93
2022-11-27T02:17:03.134Z,74.05
2022-11-27T02:20:06.981Z,74.30
2022-11-27T02:23:16.093Z,74.41
2022-11-27T02:26:41.600Z,74.32
2022-11-27T02:29:11.331Z,74.34
2022-11-27T02:31:53.545Z,74.49
2022-11-27T02:34:37.462Z,74.96
2022-11-27T02:37:31.321Z,74.94
2022-11-27T02:40:03.876Z,74.82
2022-11-27T02:43:04.974Z,74.88
2022-11-27T02:45:48.675Z,74.92
2022-11-27T02:48:20.099Z,75.21
2022-11-27T02:50:48.119Z,75.04
2022-11-27T02:53:26.848Z,75.00
2022-11-27T02:55:55.900Z,75.73
2022-11-27T02:58:26.975Z,75.35
2022-11-27T03:00:55.801Z,75.28
2022-11-27T03:03:27.440Z,75.04
2022-11-27T03:06:00.811Z,74.87
2022-11-27T03:08:44.509Z,75.42
2022-11-27T03:11:15.048Z,75.16
2022-11-27T03:13:52.420Z,75.10
2022-11-27T03:16:40.873Z,75.28
2022-11-27T03:19:23.738Z,75.00
2022-11-27T03:22:00.445Z,75.50
2022-11-27T03:24:29.547Z,75.21
2022-11-27T03:26:59.149Z,75.19
2022-11-27T03:29:30.347Z,75.20
2022-11-27T03:31:57.965Z,75.50
2022-11-27T03:34:25.316Z,75.58
2022-11-27T03:36:52.156Z,75.41
2022-11-27T03:39:21.556Z,75.66
2022-11-27T03:42:20.570Z,75.48
2022-11-27T03:44:55.160Z,75.27
2022-11-27T03:48:07.689Z,74.96
2022-11-27T03:51:10.247Z,74.98
2022-11-27T03:53:49.076Z,75.06
2022-11-27T03:56:39.515Z,75.11
2022-11-27T03:59:15.959Z,74.69
2022-11-27T04:01:43.097Z,74.43
2022-11-27T04:04:10.049Z,75.25
2022-11-27T04:06:36.889Z,75.41
2022-11-27T04:09:04.515Z,75.31
2022-11-27T04:11:31.647Z,75.56
2022-11-27T04:13:58.471Z,75.41
2022-11-27T04:16:25.356Z,75.15
2022-11-27T04:18:52.252Z,74.79
2022-11-27T04:21:19.493Z,75.17
2022-11-27T04:23:46.395Z,74.86
2022-11-27T04:26:13.313Z,74.76
2022-11-27T04:28:40.343Z,75.07
2022-11-27T04:31:07.217Z,74.88
2022-11-27T04:33:34.218Z,75.09
2022-11-27T04:36:01.067Z,75.15
2022-11-27T04:38:27.900Z,75.24
2022-11-27T04:40:54.743Z,74.96
2022-11-27T04:43:21.619Z,75.14
2022-11-27T04:45:48.448Z,75.45
2022-11-27T04:48:15.243Z,75.47
2022-11-27T04:50:42.173Z,75.46
2022-11-27T04:53:09.004Z,75.27
2022-11-27T04:55:36.078Z,75.20
2022-11-27T04:58:02.948Z,75.04
2022-11-27T05:00:29.840Z,75.31
2022-11-27T05:02:56.745Z,75.06
2022-11-27T05:05:23.555Z,75.45
2022-11-27T05:07:50.428Z,75.03
2022-11-27T05:10:17.329Z,75.37
2022-11-27T05:12:44.163Z,75.30
2022-11-27T05:15:11.265Z,75.48
2022-11-27T05:17:38.115Z,75.43
2022-11-27T05:20:06.094Z,75.44
2022-11-27T05:22:32.936Z,75.67
2022-11-27T05:24:59.743Z,75.29
2022-11-27T05:27:26.602Z,75.53
2022-11-27T05:29:53.399Z,75.99
2022-11-27T05:32:20.303Z,75.96
2022-11-27T05:34:48.623Z,75.99
2022-11-27T05:37:19.413Z,75.89
2022-11-27T05:39:47.054Z,76.34
2022-11-27T05:42:14.000Z,76.24
2022-11-27T05:44:41.024Z,75.67
2022-11-27T05:47:08.027Z,75.67
2022-11-27T05:49:35.269Z,75.34
2022-11-27T05:52:02.121Z,74.82
2022-11-27T05:54:28.974Z,75.52
2022-11-27T05:56:55.797Z,75.80
2022-11-27T05:59:22.592Z,75.50
2022-11-27T06:01:49.644Z,75.77
2022-11-27T06:04:16.800Z,75.77
2022-11-27T06:06:43.638Z,75.54
2022-11-27T06:09:13.050Z,75.57
2022-11-27T06:11:41.024Z,75.73
2022-11-27T06:14:11.499Z,75.94
2022-11-27T06:16:38.806Z,75.98
2022-11-27T06:19:05.627Z,76.70
2022-11-27T06:21:32.392Z,77.06
2022-11-27T06:23:59.321Z,76.75
2022-11-27T06:26:31.925Z,76.86
2022-11-27T06:29:01.307Z,76.53
2022-11-27T06:31:31.179Z,76.82
2022-11-27T06:33:58.897Z,76.33
2022-11-27T06:36:31.889Z,76.56
2022-11-27T06:38:58.875Z,76.39
2022-11-27T06:41:28.060Z,76.45
2022-11-27T06:43:56.081Z,76.20
2022-11-27T06:46:24.212Z,76.39
2022-11-27T06:48:52.672Z,76.09
2022-11-27T06:51:23.872Z,76.67
2022-11-27T06:53:52.409Z,76.50
2022-11-27T06:56:22.909Z,76.27
2022-11-27T06:58:55.251Z,76.14
2022-11-27T07:01:23.929Z,76.33
2022-11-27T07:03:51.009Z,76.66
2022-11-27T07:06:23.827Z,76.38
2022-11-27T07:08:50.877Z,76.41
2022-11-27T07:11:21.623Z,76.44
2022-11-27T07:13:50.502Z,76.17
2022-11-27T07:16:18.856Z,76.37
2022-11-27T07:18:52.973Z,76.26
2022-11-27T07:21:20.582Z,76.63
2022-11-27T07:23:47.413Z,76.39
2022-11-27T07:26:21.550Z,76.68
2022-11-27T07:28:48.844Z,76.88
2022-11-27T07:31:26.631Z,77.16
2022-11-27T07:33:54.179Z,77.08
2022-11-27T07:36:27.088Z,76.81
2022-11-27T07:38:54.626Z,76.73
2022-11-27T07:41:21.737Z,76.53
2022-11-27T07:43:49.157Z,76.56
2022-11-27T07:46:23.019Z,76.38
2022-11-27T07:48:50.097Z,75.93
2022-11-27T07:51:21.170Z,75.40
2022-11-27T07:53:48.658Z,75.94
2022-11-27T07:56:16.834Z,76.10
2022-11-27T07:58:44.132Z,76.24
2022-11-27T08:01:15.137Z,76.06
2022-11-27T08:03:45.191Z,76.32
2022-11-27T08:06:21.296Z,76.36
2022-11-27T08:08:49.411Z,75.82
2022-11-27T08:11:32.818Z,75.78
2022-11-27T08:14:05.543Z,75.89
2022-11-27T08:16:34.179Z,75.54
2022-11-27T08:19:01.488Z,75.46
2022-11-27T08:21:29.548Z,75.32
2022-11-27T08:23:58.064Z,76.16
2022-11-27T08:26:27.614Z,75.76
2022-11-27T08:28:55.555Z,76.13
2022-11-27T08:31:22.743Z,75.96
2022-11-27T08:33:49.809Z,75.59
2022-11-27T08:36:18.272Z,75.29
2022-11-27T08:38:46.267Z,75.08
2022-11-27T08:41:13.231Z,75.04
2022-11-27T08:43:40.140Z,75.28
2022-11-27T08:46:07.745Z,75.53
2022-11-27T08:48:35.239Z,75.73
2022-11-27T08:51:11.362Z,75.27
2022-11-27T08:53:38.656Z,75.63
2022-11-27T08:56:14.349Z,75.37
2022-11-27T08:58:41.279Z,75.29
2022-11-27T09:01:17.824Z,75.72
2022-11-27T09:03:44.943Z,75.24
2022-11-27T09:06:16.189Z,75.15
2022-11-27T09:08:43.898Z,74.98
2022-11-27T09:11:14.040Z,74.76
2022-11-27T09:13:42.249Z,74.47
2022-11-27T09:16:13.269Z,74.44
2022-11-27T09:18:40.553Z,74.75
2022-11-27T09:21:09.872Z,74.99
2022-11-27T09:23:37.707Z,75.26
2022-11-27T09:26:08.666Z,76.21
2022-11-27T09:28:37.126Z,76.06
2022-11-27T09:31:06.473Z,75.74
2022-11-27T09:33:36.199Z,75.87
2022-11-27T09:36:09.623Z,75.77
2022-11-27T09:38:37.123Z,75.89
2022-11-27T09:41:33.686Z,75.08
2022-11-27T09:44:11.659Z,74.82
2022-11-27T09:46:41.708Z,74.90
2022-11-27T09:49:16.220Z,74.76
2022-11-27T09:51:53.785Z,74.67
2022-11-27T09:54:38.969Z,74.73
2022-11-27T09:57:06.491Z,74.53
2022-11-27T09:59:50.989Z,74.70
2022-11-27T10:02:28.659Z,74.49
2022-11-27T10:05:13.479Z,74.46
2022-11-27T10:07:43.961Z,74.73
2022-11-27T10:10:45.471Z,74.92
2022-11-27T10:13:56.556Z,74.36
2022-11-27T10:17:01.993Z,74.29
2022-11-27T10:19:57.688Z,74.33
2022-11-27T10:22:59.594Z,74.26
2022-11-27T10:25:39.956Z,74.28
2022-11-27T10:28:33.567Z,73.89
2022-11-27T10:31:13.804Z,74.36
2022-11-27T10:33:56.697Z,73.79
2022-11-27T10:36:53.659Z,73.94
2022-11-27T10:39:41.171Z,73.55
2022-11-27T10:42:26.253Z,73.45
2022-11-27T10:45:31.771Z,73.21
2022-11-27T10:47:58.601Z,73.08
2022-11-27T10:50:25.500Z,74.10
2022-11-27T10:52:58.047Z,73.50
2022-11-27T10:55:37.001Z,72.88
2022-11-27T10:58:50.267Z,72.80
2022-11-27T11:01:22.884Z,72.83
2022-11-27T11:03:49.943Z,72.36
2022-11-27T11:06:25.858Z,72.58
2022-11-27T11:09:07.290Z,72.41
2022-11-27T11:11:34.068Z,74.19
2022-11-27T11:14:00.904Z,73.37
2022-11-27T11:16:35.347Z,72.99
2022-11-27T11:19:03.587Z,72.90
2022-11-27T11:21:31.981Z,72.69
2022-11-27T11:24:01.790Z,72.58
2022-11-27T11:26:51.455Z,72.52
2022-11-27T11:29:36.350Z,72.41
2022-11-27T11:32:11.438Z,72.47
2022-11-27T11:34:47.826Z,71.96
2022-11-27T11:37:36.347Z,71.68
2022-11-27T11:40:22.685Z,70.46
2022-11-27T11:43:00.269Z,71.29
2022-11-27T11:45:33.226Z,71.33
2022-11-27T11:48:24.843Z,70.60
2022-11-27T11:51:06.208Z,71.57
2022-11-27T11:53:45.447Z,71.01
2022-11-27T11:56:52.462Z,71.45
2022-11-27T11:59:28.675Z,72.02
2022-11-27T12:02:23.147Z,71.68
2022-11-27T12:05:08.473Z,71.72
2022-11-27T12:08:47.213Z,71.73
2022-11-27T12:11:24.361Z,71.41
2022-11-27T12:14:31.656Z,71.36
2022-11-27T12:17:20.094Z,71.35
2022-11-27T12:20:06.193Z,70.75
2022-11-27T12:23:44.315Z,71.24
2022-11-27T12:26:22.752Z,71.53
2022-11-27T12:29:29.941Z,72.24
2022-11-27T12:32:33.897Z,71.67
2022-11-27T12:35:33.658Z,72.12
2022-11-27T12:38:34.554Z,71.19
2022-11-27T12:41:31.140Z,71.48
2022-11-27T12:44:00.561Z,71.57
2022-11-27T12:46:38.710Z,71.71
2022-11-27T12:49:15.276Z,71.49
2022-11-27T12:52:14.371Z,72.47
2022-11-27T12:54:49.746Z,72.92
2022-11-27T12:57:30.365Z,72.81
2022-11-27T13:00:01.984Z,73.57
2022-11-27T13:02:41.381Z,73.15
2022-11-27T13:05:20.451Z,72.86
2022-11-27T13:08:30.788Z,72.51
2022-11-27T13:11:05.498Z,72.55
2022-11-27T13:13:34.684Z,72.15
2022-11-27T13:16:07.613Z,71.99
2022-11-27T13:18:40.991Z,72.17
2022-11-27T13:21:15.379Z,71.98
2022-11-27T13:23:42.368Z,72.77
2022-11-27T13:26:23.243Z,72.37
2022-11-27T13:29:08.664Z,72.46
2022-11-27T13:31:39.472Z,72.03
2022-11-27T13:34:19.896Z,72.05
2022-11-27T13:36:56.276Z,73.02
2022-11-27T13:39:27.899Z,72.43
2022-11-27T13:42:22.300Z,72.11
2022-11-27T13:44:58.095Z,72.01
2022-11-27T13:47:29.548Z,71.98
2022-11-27T13:50:07.102Z,71.97
2022-11-27T13:52:35.554Z,72.10
2022-11-27T13:55:07.524Z,72.67
2022-11-27T13:57:34.804Z,72.25
2022-11-27T14:00:08.189Z,72.11
2022-11-27T14:02:47.738Z,72.30
2022-11-27T14:05:40.746Z,72.70
2022-11-27T14:08:38.396Z,72.18
2022-11-27T14:11:11.736Z,72.21
2022-11-27T14:13:49.227Z,72.16
2022-11-27T14:16:32.171Z,72.25
2022-11-27T14:19:04.409Z,72.26
2022-11-27T14:21:40.825Z,72.17
2022-11-27T14:24:44.029Z,72.16
2022-11-27T14:27:23.764Z,72.75
2022-11-27T14:29:51.656Z,73.03
2022-11-27T14:32:20.310Z,72.93
2022-11-27T14:34:48.748Z,73.00
2022-11-27T14:37:27.975Z,73.18
2022-11-27T14:39:55.530Z,73.35
2022-11-27T14:42:30.104Z,72.96
2022-11-27T14:45:08.713Z,73.35
2022-11-27T14:47:36.008Z,74.01
2022-11-27T14:50:04.020Z,74.36
2022-11-27T14:52:31.523Z,73.84
2022-11-27T14:55:01.185Z,74.71
2022-11-27T14:57:30.196Z,73.78
2022-11-27T15:00:27.093Z,74.04
2022-11-27T15:02:54.833Z,73.73
2022-11-27T15:05:26.103Z,73.82
2022-11-27T15:07:56.990Z,73.28
2022-11-27T15:10:39.299Z,73.46
2022-11-27T15:13:08.677Z,73.13
2022-11-27T15:15:44.990Z,73.40
2022-11-27T15:18:25.100Z,72.72
2022-11-27T15:20:52.868Z,72.59
2022-11-27T15:23:29.656Z,72.14
2022-11-27T15:25:59.429Z,73.01
2022-11-27T15:28:37.672Z,72.21
2022-11-27T15:31:31.452Z,71.81
2022-11-27T15:34:23.346Z,72.87
2022-11-27T15:36:58.537Z,72.34
2022-11-27T15:39:47.167Z,72.38
2022-11-27T15:42:14.690Z,72.21
2022-11-27T15:44:41.944Z,72.79
2022-11-27T15:47:36.643Z,73.78
2022-11-27T15:50:05.557Z,73.04
2022-11-27T15:52:33.080Z,72.55
2022-11-27T15:54:59.868Z,72.12
2022-11-27T15:57:26.780Z,72.96
2022-11-27T15:59:53.575Z,72.83
2022-11-27T16:02:20.549Z,73.44
2022-11-27T16:04:47.526Z,73.10
2022-11-27T16:07:14.753Z,73.62
2022-11-27T16:09:41.669Z,72.81
2022-11-27T16:12:08.518Z,73.05
2022-11-27T16:14:35.492Z,72.81
2022-11-27T16:17:02.507Z,73.73
2022-11-27T16:19:29.971Z,73.29
2022-11-27T16:21:56.958Z,73.67
2022-11-27T16:24:23.984Z,73.04
2022-11-27T16:26:50.841Z,73.34
2022-11-27T16:29:17.976Z,74.28
2022-11-27T16:31:44.870Z,73.38
2022-11-27T16:34:11.811Z,73.33
2022-11-27T16:36:42.128Z,73.81
2022-11-27T16:39:09.129Z,73.36
2022-11-27T16:41:36.336Z,73.58
2022-11-27T16:44:11.797Z,73.56
2022-11-27T16:46:39.438Z,73.67
2022-11-27T16:49:09.182Z,75.10
2022-11-27T16:51:39.237Z,75.01
2022-11-27T16:54:10.705Z,74.74
2022-11-27T16:56:38.633Z,73.89
2022-11-27T16:59:15.730Z,73.85
2022-11-27T17:01:43.389Z,73.82
2022-11-27T17:04:18.297Z,74.25
2022-11-27T17:06:45.944Z,74.04
2022-11-27T17:09:13.577Z,73.51
2022-11-27T17:11:48.295Z,73.86
2022-11-27T17:14:16.239Z,73.84
2022-11-27T17:16:43.377Z,73.86
2022-11-27T17:19:16.002Z,73.48
2022-11-27T17:21:43.246Z,73.36
2022-11-27T17:24:16.069Z,73.43
2022-11-27T17:26:44.684Z,74.43
2022-11-27T17:29:15.192Z,74.37
2022-11-27T17:31:42.357Z,74.70
2022-11-27T17:34:14.144Z,75.21
2022-11-27T17:36:42.967Z,74.47
2022-11-27T17:39:13.302Z,73.90
2022-11-27T17:41:41.152Z,74.40
2022-11-27T17:44:08.321Z,75.61
2022-11-27T17:46:36.891Z,74.87
2022-11-27T17:49:06.390Z,74.95
2022-11-27T17:51:35.413Z,74.60
2022-11-27T17:54:03.588Z,75.10
2022-11-27T17:56:30.508Z,74.73
2022-11-27T17:58:57.966Z,73.94
2022-11-27T18:01:29.197Z,74.29
2022-11-27T18:04:00.509Z,73.73
2022-11-27T18:06:27.678Z,74.63
2022-11-27T18:08:56.469Z,75.21
2022-11-27T18:11:26.185Z,74.27
2022-11-27T18:13:53.035Z,74.89
2022-11-27T18:16:31.074Z,74.63
2022-11-27T18:18:59.335Z,74.64
2022-11-27T18:21:28.439Z,75.41
2022-11-27T18:27:07.190Z,74.69
2022-11-27T18:29:29.925Z,74.60
2022-11-27T18:31:56.829Z,75.08
2022-11-27T18:34:23.654Z,74.33
2022-11-27T18:36:50.460Z,74.75
2022-11-27T18:39:17.303Z,74.52
2022-11-27T18:41:44.144Z,74.31
2022-11-27T18:44:11.025Z,73.95
2022-11-27T18:46:38.223Z,73.92
2022-11-27T18:49:05.582Z,74.53
2022-11-27T18:51:32.849Z,74.28
2022-11-27T18:53:59.724Z,74.19
2022-11-27T18:56:30.448Z,73.80
2022-11-27T18:59:01.341Z,74.31
2022-11-27T19:01:30.802Z,74.12
2022-11-27T19:04:00.440Z,73.92
2022-11-27T19:06:28.524Z,74.27
2022-11-27T19:08:56.789Z,74.35
2022-11-27T19:11:24.831Z,74.27
2022-11-27T19:13:55.479Z,74.33
2022-11-27T19:16:31.020Z,74.95
2022-11-27T19:19:00.380Z,74.93
2022-11-27T19:21:30.214Z,74.92
2022-11-27T19:23:59.920Z,74.69
2022-11-27T19:26:30.716Z,75.14
2022-11-27T19:29:01.388Z,74.81
2022-11-27T19:31:30.543Z,74.51
2022-11-27T19:33:59.892Z,74.58
2022-11-27T19:36:30.065Z,74.10
2022-11-27T19:39:15.859Z,74.33
2022-11-27T19:41:44.022Z,74.21
2022-11-27T19:44:13.040Z,73.82
2022-11-27T19:46:40.955Z,74.62
2022-11-27T19:49:14.244Z,74.52
2022-11-27T19:51:41.684Z,74.80
2022-11-27T19:54:12.649Z,75.42
2022-11-27T19:56:40.818Z,74.89
2022-11-27T19:59:08.825Z,75.64
2022-11-27T20:01:37.592Z,75.32
2022-11-27T20:04:05.549Z,75.41
2022-11-27T20:06:32.951Z,74.98
2022-11-27T20:09:03.726Z,75.09
2022-11-27T20:11:34.860Z,75.67
2022-11-27T20:14:04.499Z,75.26
2022-11-27T20:16:32.004Z,74.88
2022-11-27T20:18:59.302Z,75.03
2022-11-27T20:21:26.591Z,75.35
2022-11-27T20:23:54.775Z,75.46
2022-11-27T20:26:25.173Z,74.95
2022-11-27T20:28:53.968Z,74.23
2022-11-27T20:31:25.278Z,74.41
2022-11-27T20:33:54.423Z,75.06
2022-11-27T20:36:23.707Z,78.07
2022-11-27T20:38:52.037Z,74.48
2022-11-27T20:41:21.153Z,74.19
2022-11-27T20:43:50.546Z,72.42
2022-11-27T20:46:18.037Z,72.59
2022-11-27T20:48:50.303Z,71.98
2022-11-27T20:51:28.335Z,72.58
2022-11-27T20:53:58.664Z,73.06
2022-11-27T20:56:25.645Z,72.66
2022-11-27T20:58:52.544Z,73.03
2022-11-27T21:01:35.475Z,73.76
2022-11-27T21:04:09.516Z,74.16
2022-11-27T21:06:43.422Z,74.20
2022-11-27T21:09:12.265Z,74.28
2022-11-27T21:11:40.389Z,74.44
2022-11-27T21:14:10.145Z,74.07
2022-11-27T21:16:42.332Z,74.24
2022-11-27T21:19:25.247Z,74.27
2022-11-27T21:21:54.160Z,74.62
2022-11-27T21:24:22.586Z,75.26
2022-11-27T21:26:49.955Z,74.66
2022-11-27T21:29:17.292Z,74.82
2022-11-27T21:31:47.151Z,74.75
2022-11-27T21:34:14.932Z,74.64
2022-11-27T21:36:41.905Z,74.29
2022-11-27T21:39:10.518Z,74.89
2022-11-27T21:41:37.449Z,75.06
2022-11-27T21:44:05.767Z,75.13
2022-11-27T21:46:33.555Z,75.33
2022-11-27T21:49:01.260Z,74.77
2022-11-27T21:51:29.955Z,74.55
2022-11-27T21:53:58.984Z,75.16
2022-11-27T21:56:28.859Z,75.00
2022-11-27T21:58:56.003Z,74.67
2022-11-27T22:01:25.785Z,75.57
2022-11-27T22:03:57.396Z,74.89
2022-11-27T22:06:28.746Z,74.71
2022-11-27T22:08:58.429Z,74.88
2022-11-27T22:11:30.175Z,74.96
2022-11-27T22:14:02.493Z,75.41
2022-11-27T22:16:33.508Z,75.07
2022-11-27T22:19:01.941Z,75.42
2022-11-27T22:21:30.860Z,75.42
2022-11-27T22:24:01.052Z,75.33
2022-11-27T22:26:28.731Z,75.42
2022-11-27T22:28:57.795Z,75.39
2022-11-27T22:31:31.121Z,75.20
2022-11-27T22:33:58.204Z,75.57
2022-11-27T22:36:33.165Z,75.99
2022-11-27T22:39:04.374Z,76.00
2022-11-27T22:41:36.197Z,75.66
2022-11-27T22:44:29.968Z,75.80
2022-11-27T22:46:56.750Z,76.01
2022-11-27T22:49:23.620Z,75.50
2022-11-27T22:51:50.408Z,75.41
2022-11-27T22:54:17.552Z,75.37
2022-11-27T22:56:45.724Z,74.89
2022-11-27T23:02:00.288Z,75.18
2022-11-27T23:04:27.164Z,74.76
2022-11-27T23:06:54.088Z,75.13
2022-11-27T23:09:20.871Z,75.69
2022-11-27T23:11:48.177Z,76.27
2022-11-27T23:14:15.134Z,75.95
2022-11-27T23:16:42.037Z,75.47
2022-11-27T23:19:10.112Z,75.67
2022-11-27T23:21:38.647Z,76.37
2022-11-27T23:24:07.946Z,75.65
2022-11-27T23:26:35.095Z,75.62
2022-11-27T23:29:02.386Z,75.97
2022-11-27T23:31:35.535Z,76.16
2022-11-27T23:34:07.434Z,75.31
2022-11-27T23:36:35.526Z,74.75
2022-11-27T23:39:05.335Z,75.00
2022-11-27T23:41:32.347Z,75.53
2022-11-27T23:43:59.451Z,75.17
2022-11-27T23:46:29.473Z,75.10
2022-11-27T23:48:59.571Z,75.25
2022-11-27T23:51:30.990Z,74.87
2022-11-27T23:53:58.999Z,75.54
2022-11-27T23:56:30.844Z,75.35
2022-11-27T23:58:58.401Z,75.94
